sensor_id;sensor_type;location;lat;lon;timestamp;pressure;altitude;pressure_sealevel;temperature;humidity
50636;BME280;36598;46.054;11.130;2023-04-19T00:01:56;99272.41;;;15.59;48.66
50636;BME280;36598;46.054;11.130;2023-04-19T00:04:21;99273.50;;;15.23;50.18
50636;BME280;36598;46.054;11.130;2023-04-19T00:06:46;99270.72;;;15.23;50.22
50636;BME280;36598;46.054;11.130;2023-04-19T00:09:12;99266.16;;;15.55;50.05
50636;BME280;36598;46.054;11.130;2023-04-19T00:11:37;99273.19;;;15.60;50.52
50636;BME280;36598;46.054;11.130;2023-04-19T00:14:02;99265.03;;;15.40;51.63
50636;BME280;36598;46.054;11.130;2023-04-19T00:16:27;99265.94;;;15.62;50.38
50636;BME280;36598;46.054;11.130;2023-04-19T00:18:53;99272.97;;;15.67;51.00
50636;BME280;36598;46.054;11.130;2023-04-19T00:21:18;99272.28;;;15.50;50.89
50636;BME280;36598;46.054;11.130;2023-04-19T00:23:43;99268.59;;;15.27;51.68
50636;BME280;36598;46.054;11.130;2023-04-19T00:26:09;99270.28;;;15.38;50.49
50636;BME280;36598;46.054;11.130;2023-04-19T00:28:35;99262.25;;;15.14;50.79
50636;BME280;36598;46.054;11.130;2023-04-19T00:31:00;99265.94;;;15.37;49.62
50636;BME280;36598;46.054;11.130;2023-04-19T00:33:26;99261.78;;;15.28;49.70
50636;BME280;36598;46.054;11.130;2023-04-19T00:35:51;99255.66;;;15.08;49.72
50636;BME280;36598;46.054;11.130;2023-04-19T00:38:16;99253.88;;;15.01;50.08
50636;BME280;36598;46.054;11.130;2023-04-19T00:40:42;99254.44;;;15.22;50.12
50636;BME280;36598;46.054;11.130;2023-04-19T00:43:07;99250.44;;;15.48;49.26
50636;BME280;36598;46.054;11.130;2023-04-19T00:45:32;99246.88;;;15.48;49.84
50636;BME280;36598;46.054;11.130;2023-04-19T00:47:59;99251.78;;;15.57;50.03
50636;BME280;36598;46.054;11.130;2023-04-19T00:50:25;99254.34;;;15.51;50.75
50636;BME280;36598;46.054;11.130;2023-04-19T00:52:50;99254.44;;;15.60;50.61
50636;BME280;36598;46.054;11.130;2023-04-19T00:55:17;99251.13;;;15.65;50.74
50636;BME280;36598;46.054;11.130;2023-04-19T00:57:42;99255.78;;;15.30;51.32
50636;BME280;36598;46.054;11.130;2023-04-19T01:00:08;99246.75;;;15.13;51.96
50636;BME280;36598;46.054;11.130;2023-04-19T01:02:33;99241.75;;;15.46;51.05
50636;BME280;36598;46.054;11.130;2023-04-19T01:04:59;99237.94;;;15.53;50.56
50636;BME280;36598;46.054;11.130;2023-04-19T01:07:24;99236.84;;;15.25;51.37
50636;BME280;36598;46.054;11.130;2023-04-19T01:09:49;99239.94;;;15.40;51.16
50636;BME280;36598;46.054;11.130;2023-04-19T01:12:15;99243.63;;;15.49;51.08
50636;BME280;36598;46.054;11.130;2023-04-19T01:14:40;99240.50;;;15.35;51.79
50636;BME280;36598;46.054;11.130;2023-04-19T01:17:06;99239.81;;;15.05;52.98
50636;BME280;36598;46.054;11.130;2023-04-19T01:19:31;99238.59;;;15.06;53.34
50636;BME280;36598;46.054;11.130;2023-04-19T01:21:59;99240.97;;;15.20;52.71
50636;BME280;36598;46.054;11.130;2023-04-19T01:24:24;99244.56;;;14.79;55.82
50636;BME280;36598;46.054;11.130;2023-04-19T01:26:49;99242.66;;;14.76;56.48
50636;BME280;36598;46.054;11.130;2023-04-19T01:29:15;99233.22;;;14.86;57.57
50636;BME280;36598;46.054;11.130;2023-04-19T01:31:42;99231.75;;;14.82;58.39
50636;BME280;36598;46.054;11.130;2023-04-19T01:34:08;99226.34;;;14.91;60.62
50636;BME280;36598;46.054;11.130;2023-04-19T01:36:33;99229.34;;;14.55;63.17
50636;BME280;36598;46.054;11.130;2023-04-19T01:38:59;99232.66;;;14.78;62.57
50636;BME280;36598;46.054;11.130;2023-04-19T01:41:24;99231.56;;;14.89;62.78
50636;BME280;36598;46.054;11.130;2023-04-19T01:43:51;99227.28;;;14.71;63.39
50636;BME280;36598;46.054;11.130;2023-04-19T01:46:16;99236.34;;;14.88;63.14
50636;BME280;36598;46.054;11.130;2023-04-19T01:48:41;99229.09;;;14.78;63.26
50636;BME280;36598;46.054;11.130;2023-04-19T01:51:07;99232.63;;;14.66;64.80
50636;BME280;36598;46.054;11.130;2023-04-19T01:53:32;99232.28;;;14.64;63.87
50636;BME280;36598;46.054;11.130;2023-04-19T01:55:57;99233.06;;;14.35;64.91
50636;BME280;36598;46.054;11.130;2023-04-19T01:58:22;99231.94;;;14.62;64.46
50636;BME280;36598;46.054;11.130;2023-04-19T02:00:48;99231.94;;;14.62;64.45
50636;BME280;36598;46.054;11.130;2023-04-19T02:03:13;99232.53;;;14.40;65.47
50636;BME280;36598;46.054;11.130;2023-04-19T02:05:38;99229.72;;;14.40;64.46
50636;BME280;36598;46.054;11.130;2023-04-19T02:08:04;99228.13;;;14.26;64.87
50636;BME280;36598;46.054;11.130;2023-04-19T02:10:29;99235.97;;;14.44;64.91
50636;BME280;36598;46.054;11.130;2023-04-19T02:12:54;99228.38;;;14.32;66.28
50636;BME280;36598;46.054;11.130;2023-04-19T02:15:20;99235.13;;;14.47;65.77
50636;BME280;36598;46.054;11.130;2023-04-19T02:17:45;99231.03;;;14.52;64.92
50636;BME280;36598;46.054;11.130;2023-04-19T02:20:10;99230.91;;;14.26;65.64
50636;BME280;36598;46.054;11.130;2023-04-19T02:22:36;99234.38;;;14.31;65.55
50636;BME280;36598;46.054;11.130;2023-04-19T02:25:01;99233.69;;;14.26;64.75
50636;BME280;36598;46.054;11.130;2023-04-19T02:27:26;99222.78;;;14.03;64.82
50636;BME280;36598;46.054;11.130;2023-04-19T02:29:51;99226.47;;;13.51;64.92
50636;BME280;36598;46.054;11.130;2023-04-19T02:32:17;99233.16;;;13.53;64.61
50636;BME280;36598;46.054;11.130;2023-04-19T02:34:42;99226.34;;;13.87;64.30
50636;BME280;36598;46.054;11.130;2023-04-19T02:37:07;99230.13;;;13.81;65.49
50636;BME280;36598;46.054;11.130;2023-04-19T02:39:33;99229.50;;;13.89;65.67
50636;BME280;36598;46.054;11.130;2023-04-19T02:41:58;99223.78;;;13.80;64.71
50636;BME280;36598;46.054;11.130;2023-04-19T02:44:23;99219.53;;;13.75;65.38
50636;BME280;36598;46.054;11.130;2023-04-19T02:46:52;99222.31;;;14.04;64.83
50636;BME280;36598;46.054;11.130;2023-04-19T02:49:17;99226.25;;;14.07;65.26
50636;BME280;36598;46.054;11.130;2023-04-19T02:51:43;99228.69;;;14.05;66.05
50636;BME280;36598;46.054;11.130;2023-04-19T02:54:08;99224.75;;;14.19;64.46
50636;BME280;36598;46.054;11.130;2023-04-19T02:56:33;99224.25;;;14.08;64.59
50636;BME280;36598;46.054;11.130;2023-04-19T02:58:59;99231.47;;;14.05;64.53
50636;BME280;36598;46.054;11.130;2023-04-19T03:01:25;99231.75;;;13.78;65.88
50636;BME280;36598;46.054;11.130;2023-04-19T03:03:50;99223.41;;;13.78;65.25
50636;BME280;36598;46.054;11.130;2023-04-19T03:06:15;99231.84;;;13.74;64.37
50636;BME280;36598;46.054;11.130;2023-04-19T03:08:41;99231.34;;;13.80;64.56
50636;BME280;36598;46.054;11.130;2023-04-19T03:11:06;99228.28;;;13.74;64.57
50636;BME280;36598;46.054;11.130;2023-04-19T03:13:31;99226.53;;;13.47;65.03
50636;BME280;36598;46.054;11.130;2023-04-19T03:15:57;99225.41;;;13.77;63.99
50636;BME280;36598;46.054;11.130;2023-04-19T03:18:22;99219.44;;;13.46;64.19
50636;BME280;36598;46.054;11.130;2023-04-19T03:20:47;99222.06;;;13.17;64.54
50636;BME280;36598;46.054;11.130;2023-04-19T03:23:12;99227.00;;;13.10;64.17
50636;BME280;36598;46.054;11.130;2023-04-19T03:25:38;99224.50;;;13.15;63.55
50636;BME280;36598;46.054;11.130;2023-04-19T03:28:03;99217.59;;;13.23;62.87
50636;BME280;36598;46.054;11.130;2023-04-19T03:30:28;99212.50;;;13.18;63.42
50636;BME280;36598;46.054;11.130;2023-04-19T03:32:54;99214.31;;;13.09;63.46
50636;BME280;36598;46.054;11.130;2023-04-19T03:35:19;99212.63;;;13.31;62.89
50636;BME280;36598;46.054;11.130;2023-04-19T03:37:45;99215.19;;;13.06;63.92
50636;BME280;36598;46.054;11.130;2023-04-19T03:40:10;99216.50;;;13.17;63.54
50636;BME280;36598;46.054;11.130;2023-04-19T03:42:35;99223.75;;;12.95;63.85
50636;BME280;36598;46.054;11.130;2023-04-19T03:45:01;99217.94;;;12.89;64.90
50636;BME280;36598;46.054;11.130;2023-04-19T03:47:26;99212.53;;;12.82;64.45
50636;BME280;36598;46.054;11.130;2023-04-19T03:49:51;99218.97;;;12.95;63.95
50636;BME280;36598;46.054;11.130;2023-04-19T03:52:17;99221.16;;;13.04;63.17
50636;BME280;36598;46.054;11.130;2023-04-19T03:54:42;99222.47;;;12.99;63.13
50636;BME280;36598;46.054;11.130;2023-04-19T03:57:07;99221.97;;;12.85;63.17
50636;BME280;36598;46.054;11.130;2023-04-19T03:59:33;99222.38;;;13.03;62.90
50636;BME280;36598;46.054;11.130;2023-04-19T04:01:59;99221.34;;;13.13;62.41
50636;BME280;36598;46.054;11.130;2023-04-19T04:04:24;99223.25;;;12.80;63.18
50636;BME280;36598;46.054;11.130;2023-04-19T04:06:49;99222.41;;;12.83;63.06
50636;BME280;36598;46.054;11.130;2023-04-19T04:09:15;99226.16;;;12.93;62.67
50636;BME280;36598;46.054;11.130;2023-04-19T04:11:40;99230.34;;;12.25;62.93
50636;BME280;36598;46.054;11.130;2023-04-19T04:14:05;99237.00;;;12.27;63.72
50636;BME280;36598;46.054;11.130;2023-04-19T04:16:31;99227.78;;;12.34;63.53
50636;BME280;36598;46.054;11.130;2023-04-19T04:18:56;99231.63;;;12.40;63.11
50636;BME280;36598;46.054;11.130;2023-04-19T04:21:21;99232.56;;;12.34;63.47
50636;BME280;36598;46.054;11.130;2023-04-19T04:23:48;99227.47;;;12.28;64.00
50636;BME280;36598;46.054;11.130;2023-04-19T04:26:13;99230.34;;;12.25;64.07
50636;BME280;36598;46.054;11.130;2023-04-19T04:28:39;99226.09;;;11.97;63.12
50636;BME280;36598;46.054;11.130;2023-04-19T04:31:04;99226.84;;;12.41;62.01
50636;BME280;36598;46.054;11.130;2023-04-19T04:33:29;99225.78;;;12.35;61.91
50636;BME280;36598;46.054;11.130;2023-04-19T04:35:55;99232.41;;;12.61;61.60
50636;BME280;36598;46.054;11.130;2023-04-19T04:38:21;99234.53;;;12.33;62.26
50636;BME280;36598;46.054;11.130;2023-04-19T04:40:50;99237.38;;;12.49;62.02
50636;BME280;36598;46.054;11.130;2023-04-19T04:43:22;99234.81;;;12.78;61.15
50636;BME280;36598;46.054;11.130;2023-04-19T04:45:48;99244.63;;;12.83;61.95
50636;BME280;36598;46.054;11.130;2023-04-19T04:48:13;99240.75;;;12.97;61.28
50636;BME280;36598;46.054;11.130;2023-04-19T04:50:38;99241.50;;;12.81;62.39
50636;BME280;36598;46.054;11.130;2023-04-19T04:53:04;99249.25;;;12.50;62.93
50636;BME280;36598;46.054;11.130;2023-04-19T04:55:29;99247.53;;;12.76;62.66
50636;BME280;36598;46.054;11.130;2023-04-19T04:57:55;99254.09;;;12.66;61.49
50636;BME280;36598;46.054;11.130;2023-04-19T05:00:20;99250.97;;;12.44;62.58
50636;BME280;36598;46.054;11.130;2023-04-19T05:02:46;99253.97;;;12.73;61.73
50636;BME280;36598;46.054;11.130;2023-04-19T05:05:11;99252.75;;;12.74;62.68
50636;BME280;36598;46.054;11.130;2023-04-19T05:07:37;99252.28;;;13.15;60.50
50636;BME280;36598;46.054;11.130;2023-04-19T05:10:02;99247.28;;;12.70;60.85
50636;BME280;36598;46.054;11.130;2023-04-19T05:12:28;99243.25;;;13.11;59.55
50636;BME280;36598;46.054;11.130;2023-04-19T05:14:53;99244.34;;;13.14;59.64
50636;BME280;36598;46.054;11.130;2023-04-19T05:17:18;99242.16;;;13.25;59.00
50636;BME280;36598;46.054;11.130;2023-04-19T05:19:44;99246.41;;;13.30;59.14
50636;BME280;36598;46.054;11.130;2023-04-19T05:22:09;99239.13;;;13.36;58.04
50636;BME280;36598;46.054;11.130;2023-04-19T05:24:35;99240.28;;;13.38;57.17
50636;BME280;36598;46.054;11.130;2023-04-19T05:27:00;99238.09;;;13.30;56.96
50636;BME280;36598;46.054;11.130;2023-04-19T05:29:25;99234.72;;;13.71;56.79
50636;BME280;36598;46.054;11.130;2023-04-19T05:31:51;99239.84;;;13.89;56.21
50636;BME280;36598;46.054;11.130;2023-04-19T05:34:16;99234.81;;;13.51;56.08
50636;BME280;36598;46.054;11.130;2023-04-19T05:36:41;99239.69;;;13.63;56.10
50636;BME280;36598;46.054;11.130;2023-04-19T05:39:07;99238.97;;;13.75;55.85
50636;BME280;36598;46.054;11.130;2023-04-19T05:41:33;99235.78;;;14.22;55.59
50636;BME280;36598;46.054;11.130;2023-04-19T05:43:58;99240.19;;;14.36;55.08
50636;BME280;36598;46.054;11.130;2023-04-19T05:46:23;99237.16;;;14.60;54.43
50636;BME280;36598;46.054;11.130;2023-04-19T05:48:49;99239.75;;;14.67;52.96
50636;BME280;36598;46.054;11.130;2023-04-19T05:51:14;99242.66;;;14.76;51.93
50636;BME280;36598;46.054;11.130;2023-04-19T05:53:41;99236.69;;;15.03;51.56
50636;BME280;36598;46.054;11.130;2023-04-19T05:56:06;99239.47;;;14.77;51.23
50636;BME280;36598;46.054;11.130;2023-04-19T05:58:31;99235.16;;;14.60;50.91
50636;BME280;36598;46.054;11.130;2023-04-19T06:00:57;99237.06;;;14.63;50.51
50636;BME280;36598;46.054;11.130;2023-04-19T06:03:22;99243.06;;;14.91;49.74
50636;BME280;36598;46.054;11.130;2023-04-19T06:05:47;99235.13;;;15.02;49.78
50636;BME280;36598;46.054;11.130;2023-04-19T06:08:13;99243.28;;;14.96;49.46
50636;BME280;36598;46.054;11.130;2023-04-19T06:10:40;99241.06;;;15.55;47.52
50636;BME280;36598;46.054;11.130;2023-04-19T06:13:07;99235.72;;;15.48;47.52
50636;BME280;36598;46.054;11.130;2023-04-19T06:15:32;99239.16;;;15.77;47.10
50636;BME280;36598;46.054;11.130;2023-04-19T06:17:57;99241.50;;;15.66;47.25
50636;BME280;36598;46.054;11.130;2023-04-19T06:20:22;99244.72;;;15.01;47.63
50636;BME280;36598;46.054;11.130;2023-04-19T06:22:48;99239.84;;;16.16;45.66
50636;BME280;36598;46.054;11.130;2023-04-19T06:25:13;99234.41;;;16.57;44.52
50636;BME280;36598;46.054;11.130;2023-04-19T06:27:39;99231.09;;;16.27;46.16
50636;BME280;36598;46.054;11.130;2023-04-19T06:30:04;99234.84;;;16.11;44.76
50636;BME280;36598;46.054;11.130;2023-04-19T06:32:30;99231.75;;;15.96;45.54
50636;BME280;36598;46.054;11.130;2023-04-19T06:34:55;99226.63;;;16.30;45.97
50636;BME280;36598;46.054;11.130;2023-04-19T06:37:20;99235.94;;;16.14;45.40
50636;BME280;36598;46.054;11.130;2023-04-19T06:39:46;99235.41;;;16.41;42.97
50636;BME280;36598;46.054;11.130;2023-04-19T06:42:11;99243.31;;;16.42;42.46
50636;BME280;36598;46.054;11.130;2023-04-19T06:44:36;99236.06;;;16.67;43.07
50636;BME280;36598;46.054;11.130;2023-04-19T06:47:01;99231.03;;;16.74;42.70
50636;BME280;36598;46.054;11.130;2023-04-19T06:49:27;99223.78;;;16.64;42.88
50636;BME280;36598;46.054;11.130;2023-04-19T06:51:52;99229.41;;;16.95;41.49
50636;BME280;36598;46.054;11.130;2023-04-19T06:54:18;99225.88;;;16.16;42.81
50636;BME280;36598;46.054;11.130;2023-04-19T06:56:46;99231.13;;;16.49;42.52
50636;BME280;36598;46.054;11.130;2023-04-19T06:59:16;99220.22;;;16.86;41.91
50636;BME280;36598;46.054;11.130;2023-04-19T07:01:42;99222.41;;;16.91;40.81
50636;BME280;36598;46.054;11.130;2023-04-19T07:04:07;99231.16;;;17.02;40.26
50636;BME280;36598;46.054;11.130;2023-04-19T07:06:35;99230.84;;;17.31;39.95
50636;BME280;36598;46.054;11.130;2023-04-19T07:09:02;99219.09;;;17.95;39.38
50636;BME280;36598;46.054;11.130;2023-04-19T07:11:28;99229.06;;;19.63;36.11
50636;BME280;36598;46.054;11.130;2023-04-19T07:13:53;99225.47;;;20.35;34.81
50636;BME280;36598;46.054;11.130;2023-04-19T07:16:19;99219.06;;;20.34;34.88
50636;BME280;36598;46.054;11.130;2023-04-19T07:18:44;99227.34;;;19.90;35.27
50636;BME280;36598;46.054;11.130;2023-04-19T07:21:09;99221.97;;;20.01;34.87
50636;BME280;36598;46.054;11.130;2023-04-19T07:23:36;99214.81;;;19.76;35.63
50636;BME280;36598;46.054;11.130;2023-04-19T07:26:01;99218.94;;;19.23;36.12
50636;BME280;36598;46.054;11.130;2023-04-19T07:28:29;99212.56;;;20.04;35.04
50636;BME280;36598;46.054;11.130;2023-04-19T07:30:55;99206.34;;;21.07;33.28
50636;BME280;36598;46.054;11.130;2023-04-19T07:33:21;99206.41;;;20.98;33.24
50636;BME280;36598;46.054;11.130;2023-04-19T07:35:46;99199.75;;;20.81;32.69
50636;BME280;36598;46.054;11.130;2023-04-19T07:38:11;99194.13;;;20.66;33.12
50636;BME280;36598;46.054;11.130;2023-04-19T07:40:37;99201.88;;;20.71;33.02
50636;BME280;36598;46.054;11.130;2023-04-19T07:43:02;99201.50;;;20.24;33.43
50636;BME280;36598;46.054;11.130;2023-04-19T07:45:29;99196.41;;;21.26;30.81
50636;BME280;36598;46.054;11.130;2023-04-19T07:47:54;99182.88;;;21.81;30.00
50636;BME280;36598;46.054;11.130;2023-04-19T07:50:19;99176.06;;;23.12;28.82
50636;BME280;36598;46.054;11.130;2023-04-19T07:52:45;99170.66;;;24.93;26.67
50636;BME280;36598;46.054;11.130;2023-04-19T07:55:10;99175.66;;;24.27;26.73
50636;BME280;36598;46.054;11.130;2023-04-19T07:57:35;99179.16;;;23.94;27.86
50636;BME280;36598;46.054;11.130;2023-04-19T08:00:01;99177.72;;;22.92;28.33
50636;BME280;36598;46.054;11.130;2023-04-19T08:02:26;99178.94;;;22.13;29.37
50636;BME280;36598;46.054;11.130;2023-04-19T08:04:52;99169.44;;;23.20;28.63
50636;BME280;36598;46.054;11.130;2023-04-19T08:07:17;99174.38;;;22.94;28.66
50636;BME280;36598;46.054;11.130;2023-04-19T08:09:42;99167.38;;;23.21;28.24
50636;BME280;36598;46.054;11.130;2023-04-19T08:12:08;99176.22;;;22.97;28.82
50636;BME280;36598;46.054;11.130;2023-04-19T08:14:33;99171.72;;;22.33;28.89
50636;BME280;36598;46.054;11.130;2023-04-19T08:16:58;99169.63;;;22.28;29.06
50636;BME280;36598;46.054;11.130;2023-04-19T08:19:24;99165.53;;;21.88;29.44
50636;BME280;36598;46.054;11.130;2023-04-19T08:21:49;99169.50;;;22.16;29.37
50636;BME280;36598;46.054;11.130;2023-04-19T08:24:14;99161.50;;;22.35;29.17
50636;BME280;36598;46.054;11.130;2023-04-19T08:26:40;99159.63;;;21.65;29.25
50636;BME280;36598;46.054;11.130;2023-04-19T08:29:06;99153.56;;;21.02;30.37
50636;BME280;36598;46.054;11.130;2023-04-19T08:31:31;99143.25;;;21.29;29.96
50636;BME280;36598;46.054;11.130;2023-04-19T08:33:57;99152.66;;;21.25;30.75
50636;BME280;36598;46.054;11.130;2023-04-19T08:36:24;99150.31;;;21.39;30.12
50636;BME280;36598;46.054;11.130;2023-04-19T08:38:50;99149.19;;;19.40;32.49
50636;BME280;36598;46.054;11.130;2023-04-19T08:41:15;99146.84;;;18.54;34.04
50636;BME280;36598;46.054;11.130;2023-04-19T08:43:42;99140.72;;;20.12;32.26
50636;BME280;36598;46.054;11.130;2023-04-19T08:46:09;99131.97;;;20.79;31.15
50636;BME280;36598;46.054;11.130;2023-04-19T08:48:35;99131.56;;;22.95;28.65
50636;BME280;36598;46.054;11.130;2023-04-19T08:51:03;99122.75;;;22.30;29.23
50636;BME280;36598;46.054;11.130;2023-04-19T08:53:29;99115.63;;;22.35;29.17
50636;BME280;36598;46.054;11.130;2023-04-19T08:55:54;99117.44;;;22.64;28.53
50636;BME280;36598;46.054;11.130;2023-04-19T08:58:23;99109.75;;;22.12;28.78
50636;BME280;36598;46.054;11.130;2023-04-19T09:00:48;99110.22;;;21.64;29.81
50636;BME280;36598;46.054;11.130;2023-04-19T09:03:13;99100.28;;;21.89;29.94
50636;BME280;36598;46.054;11.130;2023-04-19T09:05:39;99094.59;;;21.63;30.57
50636;BME280;36598;46.054;11.130;2023-04-19T09:08:22;99084.16;;;21.90;29.68
50636;BME280;36598;46.054;11.130;2023-04-19T09:11:07;99086.75;;;23.57;28.46
50636;BME280;36598;46.054;11.130;2023-04-19T09:13:32;99084.13;;;22.68;28.88
50636;BME280;36598;46.054;11.130;2023-04-19T09:16:00;99082.31;;;21.66;29.87
50636;BME280;36598;46.054;11.130;2023-04-19T09:18:26;99072.34;;;21.10;30.52
50636;BME280;36598;46.054;11.130;2023-04-19T09:20:52;99060.88;;;22.15;29.88
50636;BME280;36598;46.054;11.130;2023-04-19T09:23:21;99065.94;;;23.01;29.05
50636;BME280;36598;46.054;11.130;2023-04-19T09:28:17;99049.91;;;22.49;29.31
50636;BME280;36598;46.054;11.130;2023-04-19T09:30:43;99041.31;;;23.01;29.04
50636;BME280;36598;46.054;11.130;2023-04-19T09:33:08;99039.38;;;22.87;29.12
50636;BME280;36598;46.054;11.130;2023-04-19T09:35:43;99034.13;;;22.31;29.75
50636;BME280;36598;46.054;11.130;2023-04-19T09:38:10;99039.22;;;21.55;30.67
50636;BME280;36598;46.054;11.130;2023-04-19T09:40:36;99036.44;;;21.81;30.34
50636;BME280;36598;46.054;11.130;2023-04-19T09:43:01;99023.06;;;21.75;30.68
50636;BME280;36598;46.054;11.130;2023-04-19T09:45:38;99025.66;;;22.31;30.37
50636;BME280;36598;46.054;11.130;2023-04-19T09:48:05;99023.50;;;21.68;30.86
50636;BME280;36598;46.054;11.130;2023-04-19T09:50:34;99019.69;;;21.10;31.51
50636;BME280;36598;46.054;11.130;2023-04-19T09:53:00;99004.94;;;21.82;30.39
50636;BME280;36598;46.054;11.130;2023-04-19T09:55:26;99011.53;;;21.12;31.37
50636;BME280;36598;46.054;11.130;2023-04-19T09:57:54;99005.19;;;21.58;30.92
50636;BME280;36598;46.054;11.130;2023-04-19T10:00:19;98998.66;;;21.26;31.13
50636;BME280;36598;46.054;11.130;2023-04-19T10:02:50;98996.19;;;21.13;31.28
50636;BME280;36598;46.054;11.130;2023-04-19T10:05:20;98992.66;;;20.98;30.99
50636;BME280;36598;46.054;11.130;2023-04-19T10:07:45;98988.88;;;21.21;30.50
50636;BME280;36598;46.054;11.130;2023-04-19T10:10:11;98984.63;;;21.72;30.06
50636;BME280;36598;46.054;11.130;2023-04-19T10:12:39;98975.03;;;22.48;28.97
50636;BME280;36598;46.054;11.130;2023-04-19T10:15:05;98975.13;;;21.70;30.41
50636;BME280;36598;46.054;11.130;2023-04-19T10:17:31;98968.28;;;21.77;30.93
50636;BME280;36598;46.054;11.130;2023-04-19T10:19:58;98968.84;;;21.55;31.41
50636;BME280;36598;46.054;11.130;2023-04-19T10:22:25;98964.28;;;22.52;29.94
50636;BME280;36598;46.054;11.130;2023-04-19T10:27:33;98955.25;;;22.80;30.17
50636;BME280;36598;46.054;11.130;2023-04-19T10:30:00;98955.91;;;22.58;30.79
50636;BME280;36598;46.054;11.130;2023-04-19T10:32:26;98943.16;;;21.47;32.49
50636;BME280;36598;46.054;11.130;2023-04-19T10:34:52;98945.34;;;21.89;31.40
50636;BME280;36598;46.054;11.130;2023-04-19T10:37:20;98937.78;;;22.33;29.28
50636;BME280;36598;46.054;11.130;2023-04-19T10:39:46;98930.56;;;22.69;28.26
50636;BME280;36598;46.054;11.130;2023-04-19T10:42:13;98923.63;;;22.64;28.00
50636;BME280;36598;46.054;11.130;2023-04-19T10:44:39;98922.63;;;23.27;27.11
50636;BME280;36598;46.054;11.130;2023-04-19T10:47:04;98908.81;;;23.46;26.31
50636;BME280;36598;46.054;11.130;2023-04-19T10:49:30;98908.91;;;22.92;28.86
50636;BME280;36598;46.054;11.130;2023-04-19T10:51:55;98896.41;;;23.15;29.07
50636;BME280;36598;46.054;11.130;2023-04-19T10:54:27;98898.16;;;22.96;29.55
50636;BME280;36598;46.054;11.130;2023-04-19T10:56:56;98895.94;;;22.63;30.28
50636;BME280;36598;46.054;11.130;2023-04-19T10:59:22;98886.44;;;22.17;30.81
50636;BME280;36598;46.054;11.130;2023-04-19T11:01:52;98886.63;;;22.51;30.27
50636;BME280;36598;46.054;11.130;2023-04-19T11:04:18;98882.34;;;21.87;31.51
50636;BME280;36598;46.054;11.130;2023-04-19T11:11:59;98868.28;;;22.67;30.50
50636;BME280;36598;46.054;11.130;2023-04-19T11:14:25;98858.13;;;22.38;30.54
50636;BME280;36598;46.054;11.130;2023-04-19T11:16:51;98853.34;;;22.55;30.54
50636;BME280;36598;46.054;11.130;2023-04-19T11:19:16;98847.28;;;22.25;30.31
50636;BME280;36598;46.054;11.130;2023-04-19T11:21:43;98850.44;;;22.44;30.39
50636;BME280;36598;46.054;11.130;2023-04-19T11:24:09;98842.53;;;23.08;29.40
50636;BME280;36598;46.054;11.130;2023-04-19T11:26:35;98835.34;;;23.07;29.57
50636;BME280;36598;46.054;11.130;2023-04-19T11:29:00;98830.72;;;22.98;29.43
50636;BME280;36598;46.054;11.130;2023-04-19T11:31:26;98838.84;;;22.31;30.41
50636;BME280;36598;46.054;11.130;2023-04-19T11:33:51;98833.94;;;21.88;30.65
50636;BME280;36598;46.054;11.130;2023-04-19T11:36:16;98836.28;;;22.27;30.51
50636;BME280;36598;46.054;11.130;2023-04-19T11:38:45;98820.56;;;22.63;29.56
50636;BME280;36598;46.054;11.130;2023-04-19T11:41:11;98819.78;;;22.63;29.12
50636;BME280;36598;46.054;11.130;2023-04-19T11:43:36;98821.56;;;22.60;28.85
50636;BME280;36598;46.054;11.130;2023-04-19T11:46:05;98815.38;;;22.45;29.18
50636;BME280;36598;46.054;11.130;2023-04-19T11:48:31;98808.31;;;21.49;30.42
50636;BME280;36598;46.054;11.130;2023-04-19T11:50:57;98811.72;;;21.96;30.02
50636;BME280;36598;46.054;11.130;2023-04-19T11:53:23;98805.22;;;21.47;30.92
50636;BME280;36598;46.054;11.130;2023-04-19T11:55:53;98796.63;;;21.93;30.48
50636;BME280;36598;46.054;11.130;2023-04-19T11:58:29;98795.81;;;21.50;30.86
50636;BME280;36598;46.054;11.130;2023-04-19T12:01:06;98803.34;;;21.70;30.42
50636;BME280;36598;46.054;11.130;2023-04-19T12:03:32;98797.19;;;21.08;31.85
50636;BME280;36598;46.054;11.130;2023-04-19T12:05:58;98796.81;;;21.53;31.02
50636;BME280;36598;46.054;11.130;2023-04-19T12:08:34;98785.16;;;22.08;30.34
50636;BME280;36598;46.054;11.130;2023-04-19T12:11:01;98778.75;;;22.50;29.54
50636;BME280;36598;46.054;11.130;2023-04-19T12:13:27;98775.50;;;22.74;28.18
50636;BME280;36598;46.054;11.130;2023-04-19T12:15:59;98767.88;;;22.27;28.58
50636;BME280;36598;46.054;11.130;2023-04-19T12:18:40;98767.88;;;22.27;28.61
50636;BME280;36598;46.054;11.130;2023-04-19T12:21:09;98768.09;;;22.17;28.92
50636;BME280;36598;46.054;11.130;2023-04-19T12:23:38;98763.13;;;22.55;28.76
50636;BME280;36598;46.054;11.130;2023-04-19T12:26:03;98757.75;;;22.57;29.27
50636;BME280;36598;46.054;11.130;2023-04-19T12:28:32;98755.66;;;22.52;29.38
50636;BME280;36598;46.054;11.130;2023-04-19T12:30:58;98760.00;;;22.47;28.89
50636;BME280;36598;46.054;11.130;2023-04-19T12:33:23;98753.50;;;22.19;29.24
50636;BME280;36598;46.054;11.130;2023-04-19T12:35:48;98757.88;;;21.19;30.94
50636;BME280;36598;46.054;11.130;2023-04-19T12:38:13;98748.97;;;20.95;31.31
50636;BME280;36598;46.054;11.130;2023-04-19T12:40:39;98739.28;;;20.96;31.36
50636;BME280;36598;46.054;11.130;2023-04-19T12:43:07;98740.81;;;20.71;31.88
50636;BME280;36598;46.054;11.130;2023-04-19T12:45:32;98742.56;;;20.68;31.61
50636;BME280;36598;46.054;11.130;2023-04-19T12:47:58;98737.38;;;21.13;31.43
50636;BME280;36598;46.054;11.130;2023-04-19T12:50:23;98730.81;;;21.22;30.79
50636;BME280;36598;46.054;11.130;2023-04-19T12:52:49;98728.03;;;20.70;31.37
50636;BME280;36598;46.054;11.130;2023-04-19T12:55:18;98713.66;;;20.94;31.51